메인 페이지
METAR-TAF:

METAR-TAF

공항 :

야쿠츠크 공항

야쿠츠크, 러시아

위도: 62-01N, 경도: 129-43E, 고도: 103m

현재 날씨관측

예보는 43분 전, 15:00시(UTC)에 발표되었습니다.
북서4kt
온도 16°C
습도 88%
기압 1005 hPa
시정 10km 이상
1500m 미만 상공 구름 및 적란운 없음

METAR: UEEE 191500Z 31002MPS CAVOK 16/14 Q1005 R23L/09//60 NOSIG RMK QFE745

시각: 00:43 (15:43 UTC)

예보

예보는 1 시간 43분 전, 14:00시(UTC)에 발표되었습니다.
예보 대상 시간: 19일 15시부터 20일 21시까지 (UTC)
여러 방향의 바람 2kt
시정: 3200m
박무
일시적
19일 15시부터 19일 24시까지 (UTC)
시정: 0300m
고도 300ft 상공
안개
20일 0100시부터 (UTC)
북서6kt
시정 10km 이상
1500m 미만 상공 구름 및 적란운 없음

TAF: UEEE 191400Z 1915/2021 VRB01MPS 3200 BR NSC TEMPO 1915/1924 0300 FG VV003 FM200100 32003MPS CAVOK

4,000개 이상의 공항 관측 자료 및 예보 (METAR 및 TAF 보고).

지도상에서 검색 가능한 기상관측소가 노란 점과 빨간 점으로 표시되어 있습니다.

기상관측소 명을 보려면 표시 위로 마우스를 이동하세요.

날씨 관측과 예보를 보려면 클릭하세요.

지도 변경 : 확대하려면 엑스 표시가 있는 녹색 버튼, 축소하려면 빼기 표시가 있는 녹색 버튼, 다음 페이지의 지도를 보려면 녹색 화살표를 클릭하세요.


METAR-TAF: